Time;durP1;ratioP1;P1;durP2;ratioP2;P2;SDS_P1;SDS_P2;PMS_P1;PMS_P2;Temp;Humidity;BMP_temperature;BMP_pressure;BME280_temperature;BME280_humidity;BME280_pressure;Samples;Min_cycle;Max_cycle;Signal;HPM_P1;HPM_P2
2022/03/04 00:01:56;;;;;;;33.40;15.23;;;1.80;99.90;;;;;;5016723;28;20578;-66
2022/03/04 00:04:22;;;;;;;30.73;13.93;;;1.80;99.90;;;;;;5018155;28;20193;-65
2022/03/04 00:06:48;;;;;;;29.67;14.03;;;1.80;99.90;;;;;;5019712;28;20224;-65
2022/03/04 00:09:15;;;;;;;34.70;14.73;;;1.70;99.90;;;;;;5018852;28;20192;-65
2022/03/04 00:11:41;;;;;;;31.83;13.97;;;1.80;99.90;;;;;;5018920;28;20166;-65
2022/03/04 00:14:08;;;;;;;27.80;12.80;;;1.90;99.90;;;;;;5019379;28;20169;-65
2022/03/04 00:16:34;;;;;;;37.20;14.03;;;1.90;99.90;;;;;;5002952;28;20185;-66
2022/03/04 00:19:11;;;;;;;34.53;13.87;;;1.80;99.90;;;;;;5020294;28;20169;-66
2022/03/04 00:21:48;;;;;;;28.00;12.47;;;1.90;99.90;;;;;;5023464;28;20221;-65
2022/03/04 00:24:18;;;;;;;29.73;13.70;;;2.00;99.90;;;;;;5024101;28;20192;-66
2022/03/04 00:26:45;;;;;;;32.57;13.93;;;1.80;99.90;;;;;;5019882;28;20242;-65
2022/03/04 00:29:11;;;;;;;28.63;13.33;;;1.80;99.90;;;;;;5014062;28;20641;-65
2022/03/04 00:31:37;;;;;;;36.37;14.47;;;1.80;99.90;;;;;;5013819;28;20245;-66
2022/03/04 00:34:06;;;;;;;29.40;13.57;;;1.80;99.90;;;;;;5013448;28;20178;-66
2022/03/04 00:36:33;;;;;;;27.57;13.30;;;1.80;99.90;;;;;;5013536;28;20196;-65
2022/03/04 00:38:58;;;;;;;33.43;14.00;;;1.70;99.90;;;;;;4995836;28;20678;-66
2022/03/04 00:41:24;;;;;;;31.60;13.93;;;1.80;99.90;;;;;;5013844;28;20170;-64
2022/03/04 00:43:51;;;;;;;28.93;13.83;;;1.80;99.90;;;;;;5013708;28;20193;-64
2022/03/04 00:46:18;;;;;;;28.67;14.07;;;1.80;99.90;;;;;;5017388;28;20236;-66
2022/03/04 00:48:45;;;;;;;35.83;14.90;;;1.90;99.90;;;;;;5017393;28;20231;-65
2022/03/04 00:51:12;;;;;;;32.40;14.67;;;2.00;99.90;;;;;;5017370;28;20261;-65
2022/03/04 00:53:38;;;;;;;29.40;14.60;;;1.80;99.90;;;;;;4999348;28;20251;-65
2022/03/04 00:56:06;;;;;;;29.03;13.30;;;2.00;99.90;;;;;;5016934;28;20613;-64
2022/03/04 00:58:32;;;;;;;30.83;13.67;;;1.90;99.90;;;;;;5017102;28;20192;-65
2022/03/04 01:00:58;;;;;;;29.33;14.30;;;2.00;99.90;;;;;;5016739;28;20162;-65
2022/03/04 01:03:24;;;;;;;29.97;14.43;;;1.90;99.90;;;;;;5017047;28;20196;-67
2022/03/04 01:05:49;;;;;;;33.37;14.40;;;1.90;99.90;;;;;;5016735;28;20176;-66
2022/03/04 01:08:15;;;;;;;27.47;13.17;;;1.80;99.90;;;;;;5016825;28;20162;-65
2022/03/04 01:10:41;;;;;;;29.80;13.90;;;1.80;99.90;;;;;;5016895;28;20170;-65
2022/03/04 01:13:06;;;;;;;28.17;13.67;;;1.80;99.90;;;;;;5016558;28;20644;-65
2022/03/04 01:15:32;;;;;;;28.27;13.10;;;1.90;99.90;;;;;;5016570;28;20670;-65
2022/03/04 01:17:58;;;;;;;34.57;13.87;;;1.70;99.90;;;;;;4999450;28;20289;-65
2022/03/04 01:20:24;;;;;;;30.73;14.93;;;1.80;99.90;;;;;;5016681;28;20197;-64
2022/03/04 01:22:49;;;;;;;33.30;14.63;;;1.80;99.90;;;;;;5016826;28;20204;-65
2022/03/04 01:25:15;;;;;;;31.40;14.10;;;1.80;99.90;;;;;;5016701;28;20181;-66
2022/03/04 01:27:41;;;;;;;32.33;14.33;;;1.90;99.90;;;;;;5016234;28;20193;-65
2022/03/04 01:30:09;;;;;;;32.50;13.63;;;1.80;99.90;;;;;;5016455;28;20166;-65
2022/03/04 01:32:36;;;;;;;25.57;13.37;;;1.80;99.90;;;;;;5011499;28;20209;-66
2022/03/04 01:35:02;;;;;;;30.97;14.70;;;1.80;99.90;;;;;;5016078;28;20247;-66
2022/03/04 01:37:27;;;;;;;35.67;14.50;;;1.80;99.90;;;;;;5016079;28;20494;-66
2022/03/04 01:39:53;;;;;;;29.60;13.50;;;1.70;99.90;;;;;;5016594;28;20180;-66
2022/03/04 01:42:19;;;;;;;32.07;14.53;;;1.70;99.90;;;;;;4999354;28;20561;-64
2022/03/04 01:44:45;;;;;;;34.17;16.00;;;1.80;99.90;;;;;;5016054;28;20249;-65
2022/03/04 01:47:11;;;;;;;31.03;14.07;;;1.80;99.90;;;;;;5016446;28;20201;-66
2022/03/04 01:49:39;;;;;;;31.90;14.93;;;1.80;99.90;;;;;;5016340;28;20210;-64
2022/03/04 01:52:05;;;;;;;35.03;14.97;;;1.70;99.90;;;;;;5018234;28;20293;-65
2022/03/04 01:54:30;;;;;;;27.97;14.67;;;1.80;99.90;;;;;;5020086;28;20268;-65
2022/03/04 01:56:56;;;;;;;31.60;14.03;;;1.70;99.90;;;;;;5016464;28;20165;-67
2022/03/04 01:59:21;;;;;;;27.20;14.13;;;1.70;99.90;;;;;;5015537;28;20172;-65
2022/03/04 02:01:47;;;;;;;31.33;15.27;;;1.70;99.90;;;;;;5015776;28;20598;-64
2022/03/04 02:04:13;;;;;;;30.93;15.10;;;1.70;99.90;;;;;;5015762;28;20252;-65
2022/03/04 02:06:38;;;;;;;29.07;15.03;;;1.60;99.90;;;;;;5021128;28;20188;-65
2022/03/04 02:09:04;;;;;;;29.03;14.03;;;1.60;99.90;;;;;;5046173;28;20172;-67
2022/03/04 02:11:30;;;;;;;32.43;15.00;;;1.50;99.90;;;;;;5044503;28;20536;-65
2022/03/04 02:13:55;;;;;;;30.43;15.97;;;1.70;99.90;;;;;;5022926;28;20205;-67
2022/03/04 02:16:36;;;;;;;36.73;15.63;;;1.70;99.90;;;;;;5041286;28;20170;-64
2022/03/04 02:19:03;;;;;;;30.07;14.97;;;1.70;99.90;;;;;;5042871;28;20160;-66
2022/03/04 02:21:31;;;;;;;31.27;14.63;;;1.70;99.90;;;;;;5041760;28;20241;-65
2022/03/04 02:23:57;;;;;;;31.83;14.70;;;1.80;99.90;;;;;;5040615;28;20235;-65
2022/03/04 02:26:23;;;;;;;32.80;14.60;;;1.80;99.90;;;;;;5038860;28;20657;-65
2022/03/04 02:28:48;;;;;;;33.20;15.80;;;1.70;99.90;;;;;;5038485;28;20169;-66
2022/03/04 02:31:15;;;;;;;33.60;14.00;;;1.70;99.90;;;;;;5038711;28;20181;-67
2022/03/04 02:33:41;;;;;;;32.97;15.87;;;1.80;99.90;;;;;;5037590;28;20193;-65
2022/03/04 02:36:07;;;;;;;34.87;16.23;;;1.80;99.90;;;;;;5037181;28;20316;-64
2022/03/04 02:38:33;;;;;;;28.93;14.80;;;1.80;99.90;;;;;;5036167;28;20208;-65
2022/03/04 02:40:58;;;;;;;30.03;14.70;;;1.80;99.90;;;;;;5017752;28;20176;-65
2022/03/04 02:43:24;;;;;;;41.33;16.70;;;1.70;99.90;;;;;;5035225;28;20619;-65
2022/03/04 02:45:51;;;;;;;36.80;15.53;;;1.80;99.90;;;;;;5035248;28;20161;-65
2022/03/04 02:48:17;;;;;;;37.27;15.57;;;1.90;99.90;;;;;;5034891;28;20173;-65
2022/03/04 02:50:42;;;;;;;35.00;16.07;;;1.80;99.90;;;;;;5035106;28;20485;-66
2022/03/04 02:53:09;;;;;;;29.67;14.27;;;1.80;99.90;;;;;;5035044;28;20288;-65
2022/03/04 02:55:34;;;;;;;33.93;14.67;;;1.80;99.90;;;;;;5035770;28;20161;-66
2022/03/04 02:58:00;;;;;;;35.60;14.40;;;1.90;99.90;;;;;;5037106;28;20268;-65
2022/03/04 03:00:26;;;;;;;38.73;15.93;;;1.90;99.90;;;;;;5020512;28;20219;-68
2022/03/04 03:02:51;;;;;;;33.37;15.70;;;1.80;99.90;;;;;;5039126;28;20192;-65
2022/03/04 03:05:17;;;;;;;33.13;14.57;;;1.70;99.90;;;;;;5041070;28;20615;-65
2022/03/04 03:07:43;;;;;;;39.93;15.57;;;1.90;99.90;;;;;;5038055;28;20180;-65
2022/03/04 03:10:09;;;;;;;31.87;14.93;;;1.70;99.90;;;;;;5035248;28;20172;-65
2022/03/04 03:12:36;;;;;;;35.67;15.20;;;1.80;99.90;;;;;;5035037;28;20197;-66
2022/03/04 03:15:02;;;;;;;36.07;15.57;;;1.70;99.90;;;;;;5017382;28;20172;-64
2022/03/04 03:17:27;;;;;;;37.17;16.60;;;1.80;99.90;;;;;;5033999;28;20161;-66
2022/03/04 03:19:53;;;;;;;38.27;15.87;;;1.80;99.90;;;;;;5034083;28;20164;-65
2022/03/04 03:22:19;;;;;;;38.30;15.77;;;1.70;99.90;;;;;;5034302;28;20203;-64
2022/03/04 03:24:45;;;;;;;38.23;16.87;;;1.70;99.90;;;;;;5034534;28;20185;-65
2022/03/04 03:27:11;;;;;;;36.43;16.70;;;1.70;99.90;;;;;;5034166;28;20699;-65
2022/03/04 03:29:37;;;;;;;37.43;15.90;;;1.80;99.90;;;;;;5034422;28;20209;-65
2022/03/04 03:32:03;;;;;;;39.33;15.67;;;1.70;99.90;;;;;;5041155;28;20184;-67
2022/03/04 03:34:29;;;;;;;34.60;15.97;;;1.70;99.90;;;;;;5047536;28;20169;-67
2022/03/04 03:36:55;;;;;;;37.27;16.37;;;1.60;99.90;;;;;;5043711;28;20276;-66
2022/03/04 03:39:20;;;;;;;41.20;17.07;;;1.60;99.90;;;;;;5039255;28;20185;-67
2022/03/04 03:41:46;;;;;;;36.87;16.63;;;1.70;99.90;;;;;;5024215;28;20179;-65
2022/03/04 03:44:12;;;;;;;39.63;16.17;;;1.70;99.90;;;;;;5029783;28;20166;-70
2022/03/04 03:46:37;;;;;;;37.67;15.57;;;1.60;99.90;;;;;;5026526;28;20228;-65
2022/03/04 03:49:03;;;;;;;39.00;14.57;;;1.70;99.90;;;;;;5014310;28;20157;-64
2022/03/04 03:51:29;;;;;;;40.97;15.73;;;1.60;99.90;;;;;;5013760;28;20204;-66
2022/03/04 03:53:55;;;;;;;38.73;16.83;;;1.60;99.90;;;;;;5014026;28;20225;-66
2022/03/04 03:56:20;;;;;;;40.23;17.13;;;1.70;99.90;;;;;;5013982;28;20492;-65
2022/03/04 03:58:46;;;;;;;41.87;16.83;;;1.70;99.90;;;;;;5013445;28;20231;-64
2022/03/04 04:01:11;;;;;;;45.83;17.40;;;1.70;99.90;;;;;;5013657;28;20173;-65
2022/03/04 04:03:37;;;;;;;48.00;19.17;;;1.70;99.90;;;;;;5013610;28;20171;-65
2022/03/04 04:06:03;;;;;;;53.20;18.90;;;1.70;99.90;;;;;;5013481;28;20184;-65
2022/03/04 04:08:29;;;;;;;43.23;18.43;;;1.70;99.90;;;;;;5013813;28;20162;-66
2022/03/04 04:10:54;;;;;;;49.47;18.40;;;1.70;99.90;;;;;;5013801;28;20224;-65
2022/03/04 04:13:20;;;;;;;42.33;17.60;;;1.70;99.90;;;;;;4995503;28;20201;-65
2022/03/04 04:15:45;;;;;;;41.20;16.07;;;1.70;99.90;;;;;;5013096;28;20197;-64
2022/03/04 04:18:11;;;;;;;46.47;17.40;;;1.70;99.90;;;;;;5013374;28;20568;-65
2022/03/04 04:20:37;;;;;;;41.23;17.77;;;1.80;99.90;;;;;;5016179;28;20218;-67
2022/03/04 04:23:03;;;;;;;55.50;18.10;;;1.80;99.90;;;;;;5017395;28;20177;-65
2022/03/04 04:25:28;;;;;;;45.93;17.87;;;1.70;99.90;;;;;;5017500;28;20260;-66
2022/03/04 04:27:54;;;;;;;53.07;18.53;;;1.70;99.90;;;;;;5017422;28;20610;-65
2022/03/04 04:30:19;;;;;;;53.80;19.33;;;1.60;99.90;;;;;;5017396;28;20189;-65
2022/03/04 04:32:45;;;;;;;49.40;20.33;;;1.60;99.90;;;;;;5017360;28;20232;-65
2022/03/04 04:35:11;;;;;;;49.27;18.67;;;1.60;99.90;;;;;;5017485;28;20600;-67
2022/03/04 04:37:36;;;;;;;55.50;19.70;;;1.70;99.90;;;;;;5017460;28;20201;-66
2022/03/04 04:40:04;;;;;;;52.43;18.43;;;1.70;99.90;;;;;;5017115;28;20548;-66
2022/03/04 04:42:30;;;;;;;60.70;20.07;;;1.70;99.90;;;;;;5017587;28;20174;-66
2022/03/04 04:44:56;;;;;;;52.07;19.53;;;1.70;99.90;;;;;;5017274;28;20169;-66
2022/03/04 04:47:22;;;;;;;47.77;18.33;;;1.60;99.90;;;;;;5016579;28;20172;-64
2022/03/04 04:49:48;;;;;;;47.67;17.87;;;1.70;99.90;;;;;;5017485;28;20177;-66
2022/03/04 04:52:14;;;;;;;62.33;19.37;;;1.70;99.90;;;;;;5016610;28;20213;-66
2022/03/04 04:54:41;;;;;;;41.13;17.00;;;1.70;99.90;;;;;;4998907;28;20620;-65
2022/03/04 04:57:06;;;;;;;47.83;17.80;;;1.70;99.90;;;;;;5016896;28;20174;-65
2022/03/04 04:59:33;;;;;;;42.30;16.53;;;1.60;99.90;;;;;;5016842;28;20646;-65
2022/03/04 05:01:59;;;;;;;43.83;16.07;;;1.70;99.90;;;;;;5016536;28;20185;-65
2022/03/04 05:04:25;;;;;;;36.90;14.40;;;1.70;99.90;;;;;;5016741;28;20593;-65
2022/03/04 05:06:50;;;;;;;37.23;13.70;;;1.70;99.90;;;;;;5016873;28;20309;-65
2022/03/04 05:09:16;;;;;;;30.27;13.37;;;1.60;99.90;;;;;;5021755;28;20169;-65
2022/03/04 05:11:42;;;;;;;28.43;13.00;;;1.60;99.90;;;;;;5026438;28;20185;-65
2022/03/04 05:14:07;;;;;;;34.37;14.67;;;1.50;99.90;;;;;;5026105;28;20206;-67
2022/03/04 05:16:33;;;;;;;35.97;13.77;;;1.50;99.90;;;;;;5023710;28;20168;-65
2022/03/04 05:18:59;;;;;;;42.47;14.67;;;1.60;99.90;;;;;;5016951;28;20256;-65
2022/03/04 05:21:24;;;;;;;36.80;14.90;;;1.60;99.90;;;;;;5015987;28;20606;-65
2022/03/04 05:23:59;;;;;;;29.67;13.60;;;1.50;99.90;;;;;;5015916;28;20243;-67
2022/03/04 05:26:26;;;;;;;34.80;15.13;;;1.40;99.90;;;;;;5016197;28;20232;-65
2022/03/04 05:28:52;;;;;;;42.73;16.50;;;1.40;99.90;;;;;;5016268;28;20150;-65
2022/03/04 05:31:18;;;;;;;31.83;14.53;;;1.40;99.90;;;;;;5015115;28;20157;-65
2022/03/04 05:33:43;;;;;;;38.43;15.20;;;1.40;99.90;;;;;;5016266;28;20204;-66
2022/03/04 05:36:10;;;;;;;42.03;16.60;;;1.40;99.90;;;;;;5016365;28;20173;-65
2022/03/04 05:38:35;;;;;;;46.40;17.60;;;1.50;99.90;;;;;;5016188;28;20247;-66
2022/03/04 05:41:01;;;;;;;41.67;16.20;;;1.60;99.90;;;;;;5015642;28;20192;-65
2022/03/04 05:43:26;;;;;;;39.57;15.13;;;1.50;99.90;;;;;;5016237;28;20169;-65
2022/03/04 05:45:52;;;;;;;43.17;16.87;;;1.40;99.90;;;;;;5016718;28;20169;-66
2022/03/04 05:48:18;;;;;;;37.13;16.03;;;1.50;99.90;;;;;;5017925;28;20174;-65
2022/03/04 05:50:43;;;;;;;38.33;15.87;;;1.40;99.90;;;;;;5019317;28;20261;-66
2022/03/04 05:53:09;;;;;;;29.17;15.60;;;1.40;99.90;;;;;;5019826;28;20542;-65
2022/03/04 05:55:35;;;;;;;35.20;15.93;;;1.50;99.90;;;;;;5022965;28;20194;-64
2022/03/04 05:58:00;;;;;;;41.53;16.83;;;1.40;99.90;;;;;;5021349;28;20170;-66
2022/03/04 06:00:27;;;;;;;34.70;15.40;;;1.40;99.90;;;;;;5020728;28;20542;-64
2022/03/04 06:02:53;;;;;;;37.30;14.73;;;1.40;99.90;;;;;;5019513;28;20178;-66
2022/03/04 06:05:18;;;;;;;31.57;14.47;;;1.30;99.90;;;;;;5017322;28;20653;-65
2022/03/04 06:07:44;;;;;;;35.27;14.33;;;1.50;99.90;;;;;;5015861;28;20252;-65
2022/03/04 06:10:10;;;;;;;32.70;14.00;;;1.50;99.90;;;;;;5015590;28;20169;-65
2022/03/04 06:12:36;;;;;;;33.13;13.87;;;1.50;99.90;;;;;;4997483;28;20209;-65
2022/03/04 06:15:01;;;;;;;29.47;14.33;;;1.60;99.90;;;;;;5015488;28;20177;-64
2022/03/04 06:17:27;;;;;;;31.57;14.37;;;1.60;99.90;;;;;;5015591;28;20586;-64
2022/03/04 06:19:53;;;;;;;38.40;15.33;;;1.60;99.90;;;;;;5015052;28;20165;-65
2022/03/04 06:22:20;;;;;;;29.80;13.93;;;1.50;99.90;;;;;;5015170;28;20227;-66
2022/03/04 06:24:46;;;;;;;30.93;14.43;;;1.50;99.90;;;;;;5015650;28;20190;-64
2022/03/04 06:27:12;;;;;;;37.47;15.93;;;1.50;99.90;;;;;;4997250;28;20268;-66
2022/03/04 06:29:37;;;;;;;30.27;13.40;;;1.60;99.90;;;;;;5011039;28;20220;-65
2022/03/04 06:32:03;;;;;;;29.97;12.73;;;1.60;99.90;;;;;;5014721;28;20223;-65
2022/03/04 06:34:29;;;;;;;37.63;14.33;;;1.50;99.90;;;;;;5014939;28;20193;-66
2022/03/04 06:36:55;;;;;;;32.93;13.80;;;1.50;99.90;;;;;;5014880;28;20197;-65
2022/03/04 06:39:20;;;;;;;32.53;14.40;;;1.50;99.90;;;;;;5014212;28;20185;-64
2022/03/04 06:41:48;;;;;;;27.70;14.07;;;1.50;99.90;;;;;;5014903;28;20214;-65
2022/03/04 06:44:14;;;;;;;35.67;14.47;;;1.50;99.90;;;;;;4997277;28;20181;-66
2022/03/04 06:46:39;;;;;;;33.10;14.57;;;1.50;99.90;;;;;;5015052;28;20170;-65
2022/03/04 06:49:10;;;;;;;33.27;15.33;;;1.60;99.90;;;;;;5014844;28;20351;-65
2022/03/04 06:51:36;;;;;;;41.30;18.63;;;1.60;99.90;;;;;;5014862;28;20586;-64
2022/03/04 06:54:02;;;;;;;34.23;15.57;;;1.50;99.90;;;;;;5014490;28;20336;-66
2022/03/04 06:56:27;;;;;;;41.93;18.13;;;1.60;99.90;;;;;;5014711;28;20201;-67
2022/03/04 06:58:53;;;;;;;34.17;15.07;;;1.50;99.90;;;;;;5014807;28;20581;-68
2022/03/04 07:01:19;;;;;;;30.93;14.57;;;1.60;99.90;;;;;;5014492;28;20178;-65
2022/03/04 07:03:44;;;;;;;29.50;15.07;;;1.60;99.90;;;;;;5014908;28;20190;-65
2022/03/04 07:06:10;;;;;;;30.30;14.07;;;1.50;99.90;;;;;;5013390;28;20513;-65
2022/03/04 07:08:37;;;;;;;34.40;14.67;;;1.40;99.90;;;;;;5013883;28;20165;-67
2022/03/04 07:11:03;;;;;;;34.73;15.80;;;1.50;99.90;;;;;;5014329;28;20663;-65
2022/03/04 07:13:29;;;;;;;35.40;15.27;;;1.60;99.90;;;;;;5014288;28;20649;-65
2022/03/04 07:15:55;;;;;;;32.60;14.90;;;1.60;99.90;;;;;;5014655;28;20612;-66
2022/03/04 07:18:23;;;;;;;28.57;13.13;;;1.60;99.90;;;;;;4996747;28;20173;-65
2022/03/04 07:20:49;;;;;;;30.87;15.73;;;1.60;99.90;;;;;;5013693;28;20195;-66
2022/03/04 07:23:15;;;;;;;30.87;15.23;;;1.50;99.90;;;;;;5014427;28;20177;-66
2022/03/04 07:25:42;;;;;;;34.43;16.60;;;1.60;99.90;;;;;;5014280;28;20589;-64
2022/03/04 07:28:08;;;;;;;35.60;16.47;;;1.50;99.90;;;;;;5014079;28;20158;-65
2022/03/04 07:30:34;;;;;;;27.80;12.90;;;1.60;99.90;;;;;;4996666;28;20186;-65
2022/03/04 07:33:00;;;;;;;28.83;14.73;;;1.50;99.90;;;;;;5013574;28;20214;-63
2022/03/04 07:35:26;;;;;;;29.03;13.37;;;1.50;99.90;;;;;;5014902;28;20182;-64
2022/03/04 07:37:52;;;;;;;24.90;12.30;;;1.60;99.90;;;;;;5017202;28;20228;-65
2022/03/04 07:40:17;;;;;;;24.23;12.40;;;1.50;99.90;;;;;;5012792;28;20200;-65
2022/03/04 07:42:43;;;;;;;28.73;13.73;;;1.60;99.90;;;;;;5016869;28;20208;-65
2022/03/04 07:45:11;;;;;;;31.13;13.40;;;1.70;99.90;;;;;;5017297;28;20161;-64
2022/03/04 07:47:38;;;;;;;25.73;13.20;;;1.80;99.90;;;;;;5016483;28;20512;-65
2022/03/04 07:50:09;;;;;;;28.83;12.70;;;1.70;99.90;;;;;;5016715;28;20172;-65
2022/03/04 07:52:35;;;;;;;29.50;12.43;;;1.80;99.90;;;;;;4997023;28;20268;-65
2022/03/04 07:55:03;;;;;;;30.20;12.67;;;1.70;99.90;;;;;;5009066;28;20209;-65
2022/03/04 07:57:29;;;;;;;28.17;13.00;;;1.70;99.90;;;;;;5013923;28;20212;-64
2022/03/04 07:59:55;;;;;;;27.30;12.63;;;1.70;99.90;;;;;;5013818;28;20173;-66
2022/03/04 08:02:21;;;;;;;30.90;14.13;;;1.80;99.90;;;;;;5013776;28;20169;-64
2022/03/04 08:04:46;;;;;;;31.77;15.20;;;1.80;99.90;;;;;;5013878;28;20284;-65
2022/03/04 08:07:13;;;;;;;22.93;12.37;;;1.90;99.90;;;;;;5014205;28;20221;-67
2022/03/04 08:09:39;;;;;;;32.47;14.63;;;1.90;99.90;;;;;;5015208;28;20188;-65
2022/03/04 08:12:06;;;;;;;30.33;14.60;;;1.80;99.90;;;;;;5014557;28;20169;-65
2022/03/04 08:14:31;;;;;;;36.57;17.37;;;1.70;99.90;;;;;;4997323;28;20668;-65
2022/03/04 08:16:57;;;;;;;31.23;15.27;;;1.80;99.90;;;;;;5015989;28;20166;-64
2022/03/04 08:19:23;;;;;;;30.57;16.60;;;1.80;99.90;;;;;;5017249;28;20208;-65
2022/03/04 08:21:49;;;;;;;25.60;12.03;;;1.70;99.90;;;;;;5013789;28;20614;-62
2022/03/04 08:24:14;;;;;;;26.57;12.53;;;1.70;99.90;;;;;;5014298;28;20176;-64
2022/03/04 08:26:41;;;;;;;31.20;13.63;;;1.70;99.90;;;;;;5013317;28;20735;-64
2022/03/04 08:29:10;;;;;;;26.67;12.77;;;1.80;99.90;;;;;;5013341;28;20334;-65
2022/03/04 08:31:37;;;;;;;30.60;13.07;;;1.80;99.90;;;;;;5014017;28;20174;-64
2022/03/04 08:34:03;;;;;;;28.07;12.17;;;1.80;99.90;;;;;;5013725;28;20204;-65
2022/03/04 08:36:29;;;;;;;23.80;12.97;;;2.00;99.90;;;;;;5013116;28;20173;-65
2022/03/04 08:38:55;;;;;;;27.70;12.20;;;1.90;99.90;;;;;;5013252;28;20165;-66
2022/03/04 08:41:20;;;;;;;30.67;15.13;;;1.90;99.90;;;;;;5014125;28;20496;-66
2022/03/04 08:43:47;;;;;;;25.77;12.90;;;1.80;99.90;;;;;;5013767;28;20174;-66
2022/03/04 08:46:14;;;;;;;22.67;11.37;;;1.80;99.90;;;;;;5013519;28;20269;-66
2022/03/04 08:48:40;;;;;;;24.23;11.73;;;1.80;99.90;;;;;;5013170;28;20157;-67
2022/03/04 08:51:06;;;;;;;164.77;77.27;;;1.90;99.90;;;;;;5013508;28;20173;-73
2022/03/04 08:53:32;;;;;;;76.57;37.03;;;2.00;99.90;;;;;;5013780;28;20198;-72
2022/03/04 08:55:58;;;;;;;31.27;14.33;;;2.20;99.90;;;;;;5014476;28;20165;-67
2022/03/04 08:58:24;;;;;;;30.00;12.50;;;2.10;99.90;;;;;;5013112;28;20273;-69
2022/03/04 09:00:49;;;;;;;24.07;11.87;;;2.10;99.90;;;;;;5012635;28;20165;-65
2022/03/04 09:03:15;;;;;;;24.27;11.50;;;2.10;99.90;;;;;;5013914;28;20224;-64
2022/03/04 09:05:41;;;;;;;24.07;12.83;;;1.90;99.90;;;;;;5014080;28;20165;-68
2022/03/04 09:08:06;;;;;;;46.20;20.70;;;1.90;99.90;;;;;;5010811;28;20174;-68
2022/03/04 09:10:32;;;;;;;29.07;13.37;;;2.00;99.90;;;;;;5012053;28;20165;-67
2022/03/04 09:12:58;;;;;;;30.33;12.30;;;2.00;99.90;;;;;;4989976;28;20206;-66
2022/03/04 09:15:24;;;;;;;40.70;15.50;;;2.10;99.90;;;;;;5011533;28;20163;-65
2022/03/04 09:17:50;;;;;;;28.50;13.23;;;2.10;99.90;;;;;;4998367;28;20265;-67
2022/03/04 09:20:19;;;;;;;22.83;9.93;;;2.20;99.90;;;;;;4999607;28;20594;-65
2022/03/04 09:22:45;;;;;;;30.10;12.17;;;2.00;99.90;;;;;;4996768;28;20182;-66
2022/03/04 09:25:12;;;;;;;28.93;12.10;;;2.00;99.90;;;;;;4997913;28;20186;-66
2022/03/04 09:27:37;;;;;;;23.40;11.30;;;1.80;99.90;;;;;;4996284;28;20233;-66
2022/03/04 09:30:04;;;;;;;26.20;12.40;;;1.90;99.90;;;;;;4996733;28;20613;-65
2022/03/04 09:32:30;;;;;;;31.27;14.03;;;2.00;99.90;;;;;;4996561;28;20202;-66
2022/03/04 09:34:55;;;;;;;22.93;11.00;;;2.00;99.90;;;;;;4996372;28;20170;-66
2022/03/04 09:37:21;;;;;;;28.63;11.43;;;1.90;99.90;;;;;;4996373;28;20178;-67
2022/03/04 09:39:46;;;;;;;26.93;12.53;;;1.90;99.90;;;;;;4996645;28;20179;-65
2022/03/04 09:42:12;;;;;;;31.13;12.47;;;2.00;99.90;;;;;;4997057;28;20258;-66
2022/03/04 09:44:39;;;;;;;32.00;13.83;;;2.00;99.90;;;;;;4996148;28;20155;-65
2022/03/04 09:47:05;;;;;;;24.60;11.83;;;2.00;99.90;;;;;;4996678;28;20167;-66
2022/03/04 09:49:34;;;;;;;28.33;13.33;;;2.20;99.90;;;;;;4996443;28;20242;-66
2022/03/04 09:52:00;;;;;;;27.33;12.73;;;2.10;99.90;;;;;;4996446;28;20166;-65
2022/03/04 09:54:27;;;;;;;24.13;11.27;;;2.20;99.90;;;;;;4996128;28;20232;-67
2022/03/04 09:56:54;;;;;;;21.53;10.87;;;2.20;99.90;;;;;;4995778;28;20595;-65
2022/03/04 09:59:19;;;;;;;24.10;12.40;;;2.10;99.90;;;;;;4996174;28;20166;-66
2022/03/04 10:01:46;;;;;;;25.93;12.17;;;2.20;99.90;;;;;;4995793;28;20159;-64
2022/03/04 10:04:12;;;;;;;19.90;10.57;;;2.30;99.90;;;;;;4995905;28;20197;-67
2022/03/04 10:06:38;;;;;;;24.97;11.13;;;2.40;99.90;;;;;;4996334;28;20237;-66
2022/03/04 10:09:05;;;;;;;24.83;11.10;;;2.20;99.90;;;;;;4996399;28;20159;-65
2022/03/04 10:11:34;;;;;;;26.57;11.67;;;2.20;99.90;;;;;;4996130;28;20177;-66
2022/03/04 10:14:07;;;;;;;24.30;11.70;;;2.30;99.90;;;;;;4995747;28;20229;-65
2022/03/04 10:16:41;;;;;;;23.50;11.93;;;2.30;99.90;;;;;;4995394;28;20162;-66
2022/03/04 10:19:15;;;;;;;29.23;14.50;;;2.60;99.90;;;;;;4994735;28;20170;-64
2022/03/04 10:21:51;;;;;;;24.23;11.90;;;2.40;99.90;;;;;;4995414;28;20613;-64
2022/03/04 10:24:23;;;;;;;22.33;11.27;;;2.40;99.90;;;;;;4995980;28;20190;-65
2022/03/04 10:26:58;;;;;;;18.47;10.87;;;2.30;99.90;;;;;;4996682;28;20232;-64
2022/03/04 10:29:25;;;;;;;21.93;11.10;;;2.10;99.90;;;;;;4996104;28;20542;-64
2022/03/04 10:32:06;;;;;;;23.33;10.47;;;2.20;99.90;;;;;;4995528;28;20159;-64
2022/03/04 10:34:55;;;;;;;23.23;12.07;;;2.40;99.90;;;;;;4995858;28;20247;-65
2022/03/04 10:37:37;;;;;;;21.53;11.33;;;2.30;99.90;;;;;;4995461;28;20205;-66
2022/03/04 10:40:23;;;;;;;22.30;11.03;;;2.30;99.90;;;;;;4995880;28;20163;-66
2022/03/04 10:42:55;;;;;;;23.50;11.10;;;2.40;99.90;;;;;;4995683;28;20158;-64
2022/03/04 10:45:23;;;;;;;60.17;24.37;;;2.30;99.90;;;;;;4995010;28;20173;-63
2022/03/04 10:47:53;;;;;;;28.07;13.13;;;2.30;99.90;;;;;;4995232;28;20213;-65
2022/03/04 10:50:41;;;;;;;43.70;19.77;;;2.40;99.90;;;;;;4977550;28;20174;-65
2022/03/04 10:53:21;;;;;;;50.43;22.60;;;2.30;99.90;;;;;;4994518;28;20669;-67
2022/03/04 10:55:48;;;;;;;71.13;34.33;;;2.50;99.90;;;;;;4994844;28;20177;-68
2022/03/04 10:58:18;;;;;;;26.57;14.03;;;2.40;99.90;;;;;;4994991;28;20511;-67
2022/03/04 11:00:49;;;;;;;28.63;13.57;;;2.50;99.90;;;;;;4994911;28;20155;-66
2022/03/04 11:03:17;;;;;;;29.20;13.03;;;2.40;99.90;;;;;;4995072;28;20163;-66
2022/03/04 11:05:43;;;;;;;24.70;12.27;;;2.40;99.90;;;;;;4994912;28;20166;-65
2022/03/04 11:08:10;;;;;;;30.83;15.60;;;2.30;99.90;;;;;;4995189;28;20312;-65
2022/03/04 11:10:35;;;;;;;30.80;14.07;;;2.30;99.90;;;;;;4994930;28;20457;-65
2022/03/04 11:13:07;;;;;;;28.17;10.03;;;2.30;99.90;;;;;;4994689;28;20194;-66
2022/03/04 11:15:34;;;;;;;27.17;13.77;;;2.50;99.90;;;;;;4995307;28;20163;-65
2022/03/04 11:18:06;;;;;;;30.63;13.20;;;2.50;99.90;;;;;;4996000;28;20163;-65
2022/03/04 11:20:32;;;;;;;33.20;14.53;;;2.50;99.90;;;;;;4995105;28;20170;-67
2022/03/04 11:22:58;;;;;;;30.37;14.07;;;2.60;99.90;;;;;;4994708;28;20216;-66
2022/03/04 11:25:24;;;;;;;35.73;14.67;;;2.50;99.90;;;;;;4995196;28;20491;-63
2022/03/04 11:27:52;;;;;;;31.43;14.57;;;2.40;99.90;;;;;;4994742;28;20284;-66
2022/03/04 11:30:32;;;;;;;26.53;13.87;;;2.50;99.90;;;;;;4993486;28;20203;-65
2022/03/04 11:33:11;;;;;;;25.10;14.07;;;2.40;99.90;;;;;;4977503;28;20214;-65
2022/03/04 11:36:02;;;;;;;29.63;12.83;;;2.50;99.90;;;;;;4995036;28;20265;-65
2022/03/04 11:38:46;;;;;;;35.10;15.60;;;2.50;99.90;;;;;;4994682;28;20233;-66
2022/03/04 11:41:22;;;;;;;28.77;15.27;;;2.50;99.90;;;;;;4994868;28;20591;-66
2022/03/04 11:43:59;;;;;;;27.10;13.13;;;2.60;99.90;;;;;;4994437;28;20169;-63
2022/03/04 11:46:41;;;;;;;37.53;15.27;;;2.50;99.90;;;;;;4994254;28;20658;-65
2022/03/04 11:49:46;;;;;;;29.63;14.77;;;2.60;99.90;;;;;;4993889;28;20197;-67
2022/03/04 11:52:35;;;;;;;32.47;14.43;;;2.70;99.90;;;;;;4994608;28;20155;-65
2022/03/04 11:55:07;;;;;;;27.33;13.20;;;2.80;99.90;;;;;;4993547;28;20221;-64
2022/03/04 11:57:38;;;;;;;36.23;14.47;;;2.60;99.90;;;;;;4994658;28;20155;-64
2022/03/04 12:00:12;;;;;;;31.03;15.00;;;2.80;99.90;;;;;;4994412;28;20247;-64
2022/03/04 12:02:48;;;;;;;29.23;14.20;;;2.80;99.90;;;;;;4994056;28;20498;-64
2022/03/04 12:05:25;;;;;;;24.43;12.87;;;2.70;99.90;;;;;;4994096;28;20202;-65
2022/03/04 12:07:56;;;;;;;31.03;13.03;;;2.80;99.90;;;;;;4994784;28;20173;-65
2022/03/04 12:10:25;;;;;;;27.27;13.80;;;2.80;99.90;;;;;;4993971;28;20185;-65
2022/03/04 12:13:18;;;;;;;32.00;14.27;;;2.80;99.90;;;;;;4994457;28;20206;-65
2022/03/04 12:16:05;;;;;;;25.73;12.97;;;2.80;99.90;;;;;;4994077;28;20174;-65
2022/03/04 12:18:38;;;;;;;36.83;14.53;;;2.80;99.90;;;;;;4994498;28;20174;-64
2022/03/04 12:21:07;;;;;;;32.03;16.13;;;2.60;99.90;;;;;;4994951;28;20572;-63
2022/03/04 12:23:42;;;;;;;28.00;13.67;;;2.80;99.90;;;;;;4993825;28;20498;-65
2022/03/04 12:26:12;;;;;;;34.33;13.77;;;2.80;99.90;;;;;;4973455;28;20238;-64
2022/03/04 12:28:46;;;;;;;39.63;18.17;;;2.80;99.90;;;;;;4974699;28;20484;-63
2022/03/04 12:31:11;;;;;;;40.33;13.83;;;2.70;99.90;;;;;;4974567;28;20168;-65
2022/03/04 12:33:42;;;;;;;33.67;15.67;;;2.90;99.90;;;;;;4975154;28;20514;-64
2022/03/04 12:36:11;;;;;;;32.57;15.47;;;3.00;99.90;;;;;;4975106;28;20161;-64
2022/03/04 12:38:42;;;;;;;30.00;14.27;;;2.90;99.90;;;;;;4974141;28;20513;-63